Terminal Aerodrome Forecast
Issued by NWS Shreveport, LA

Home | Current Version | Previous Version | Text Only | Print | Product List | Glossary On
Versions: 1 2 3 4 5 6 7 8 9 10 11 12 13 14 15 16 17 18
836
FTUS44 KSHV 222327
TAFGGG
TAF
KGGG 222327Z 2300/2324 14004KT P6SM SKC
      TEMPO 2309/2312 3SM BR BKN003
     FM231200 09003KT 3SM BR SCT005 SCT015
      TEMPO 2312/2314 1/2SM FG VV002
     FM231500 10004KT P6SM SCT020
     FM231800 12007KT P6SM SCT040=

USA.gov is the U.S. government's official web portal to all federal, state and local government web resources and services.